createdAt,value
2023-01-23T00:01:30.707Z,78.16
2023-01-23T00:03:58.588Z,79.08
2023-01-23T00:06:27.117Z,75.08
2023-01-23T00:08:56.692Z,86.50
2023-01-23T00:11:26.771Z,83.75
2023-01-23T00:13:54.191Z,82.03
2023-01-23T00:16:23.714Z,83.63
2023-01-23T00:18:52.196Z,79.05
2023-01-23T00:21:22.430Z,82.00
2023-01-23T00:23:55.253Z,89.20
2023-01-23T00:26:25.378Z,88.51
2023-01-23T00:28:53.508Z,89.95
2023-01-23T00:31:25.264Z,91.40
2023-01-23T00:33:58.774Z,89.09
2023-01-23T00:36:32.024Z,91.09
2023-01-23T00:39:00.279Z,90.79
2023-01-23T00:41:28.255Z,84.04
2023-01-23T00:43:55.695Z,89.75
2023-01-23T00:46:23.664Z,89.99
2023-01-23T00:48:51.457Z,83.47
2023-01-23T00:51:19.146Z,90.36
2023-01-23T00:53:46.984Z,86.97
2023-01-23T00:56:14.447Z,88.42
2023-01-23T00:58:44.088Z,87.22
2023-01-23T01:01:13.945Z,87.72
2023-01-23T01:03:42.361Z,85.66
2023-01-23T01:06:10.533Z,83.17
2023-01-23T01:08:38.725Z,77.01
2023-01-23T01:11:06.792Z,81.98
2023-01-23T01:13:34.505Z,81.51
2023-01-23T01:16:02.393Z,78.77
2023-01-23T01:18:30.151Z,83.39
2023-01-23T01:20:58.083Z,83.26
2023-01-23T01:23:26.057Z,82.77
2023-01-23T01:25:53.599Z,83.77
2023-01-23T01:28:21.450Z,83.28
2023-01-23T01:30:49.183Z,80.01
2023-01-23T01:33:16.655Z,80.28
2023-01-23T01:35:44.524Z,80.26
2023-01-23T01:38:12.821Z,81.24
2023-01-23T01:40:40.238Z,83.79
2023-01-23T01:43:15.615Z,80.07
2023-01-23T01:46:13.238Z,81.03
2023-01-23T01:49:17.157Z,80.98
2023-01-23T01:51:52.308Z,80.94
2023-01-23T01:54:19.614Z,80.36
2023-01-23T01:56:55.111Z,78.73
2023-01-23T01:59:24.372Z,82.60
2023-01-23T02:01:57.209Z,80.79
2023-01-23T02:04:25.201Z,81.44
2023-01-23T02:06:52.889Z,81.50
2023-01-23T02:09:26.026Z,81.03
2023-01-23T02:11:54.417Z,84.07
2023-01-23T02:14:25.730Z,85.49
2023-01-23T02:16:56.068Z,87.82
2023-01-23T02:19:39.067Z,87.21
2023-01-23T02:22:49.528Z,86.79
2023-01-23T02:25:22.221Z,88.73
2023-01-23T02:27:49.654Z,83.25
2023-01-23T02:30:18.769Z,84.91
2023-01-23T02:32:46.907Z,80.32
2023-01-23T02:35:25.495Z,84.37
2023-01-23T02:37:56.509Z,79.69
2023-01-23T02:40:36.551Z,86.61
2023-01-23T02:43:05.806Z,87.57
2023-01-23T02:45:34.448Z,85.27
2023-01-23T02:48:01.990Z,88.19
2023-01-23T02:50:29.724Z,87.67
2023-01-23T02:52:58.488Z,89.70
2023-01-23T02:55:33.889Z,88.77
2023-01-23T02:58:20.756Z,83.84
2023-01-23T03:00:49.709Z,87.15
2023-01-23T03:03:17.493Z,75.67
2023-01-23T03:05:44.947Z,82.07
2023-01-23T03:08:12.442Z,87.44
2023-01-23T03:10:40.184Z,86.08
2023-01-23T03:13:09.219Z,82.27
2023-01-23T03:15:38.514Z,87.76
2023-01-23T03:18:06.435Z,88.02
2023-01-23T03:20:41.278Z,88.36
2023-01-23T03:23:09.156Z,90.59
2023-01-23T03:25:36.570Z,91.44
2023-01-23T03:28:24.200Z,91.26
2023-01-23T03:30:52.205Z,88.30
2023-01-23T03:33:19.695Z,87.85
2023-01-23T03:35:47.299Z,86.74
2023-01-23T03:38:18.032Z,86.00
2023-01-23T03:41:04.295Z,86.35
2023-01-23T03:43:32.977Z,84.32
2023-01-23T03:46:00.428Z,86.31
2023-01-23T03:48:28.794Z,86.75
2023-01-23T03:50:56.744Z,84.36
2023-01-23T03:53:25.232Z,83.94
2023-01-23T03:55:53.312Z,84.38
2023-01-23T03:58:21.156Z,83.46
2023-01-23T04:00:48.911Z,85.37
2023-01-23T04:03:16.950Z,87.37
2023-01-23T04:05:44.366Z,87.20
2023-01-23T04:08:11.790Z,88.17
2023-01-23T04:10:39.623Z,85.62
2023-01-23T04:13:10.317Z,86.39
2023-01-23T04:15:38.358Z,86.02
2023-01-23T04:18:06.272Z,85.32
2023-01-23T04:20:33.797Z,80.95
2023-01-23T04:23:01.203Z,78.39
2023-01-23T04:25:29.830Z,83.86
2023-01-23T04:27:57.505Z,85.57
2023-01-23T04:30:25.420Z,85.02
2023-01-23T04:32:53.334Z,82.22
2023-01-23T04:35:20.873Z,80.98
2023-01-23T04:37:48.360Z,81.47
2023-01-23T04:40:17.263Z,80.07
2023-01-23T04:42:46.027Z,80.40
2023-01-23T04:45:13.824Z,75.75
2023-01-23T04:47:45.543Z,73.12
2023-01-23T04:50:13.954Z,71.51
2023-01-23T04:52:42.017Z,66.59
2023-01-23T04:55:09.990Z,66.18
2023-01-23T04:57:37.622Z,67.90
2023-01-23T05:00:06.093Z,65.51
2023-01-23T05:02:33.831Z,66.25
2023-01-23T05:05:01.921Z,65.72
2023-01-23T05:07:29.491Z,63.41
2023-01-23T05:09:58.161Z,62.95
2023-01-23T05:12:25.668Z,62.77
2023-01-23T05:14:53.154Z,62.99
2023-01-23T05:17:21.024Z,63.97
2023-01-23T05:19:48.501Z,66.01
2023-01-23T05:22:15.925Z,67.49
2023-01-23T05:24:44.209Z,64.75
2023-01-23T05:27:12.919Z,64.00
2023-01-23T05:29:40.582Z,63.77
2023-01-23T05:32:08.618Z,62.03
2023-01-23T05:34:39.239Z,59.79
2023-01-23T05:37:07.849Z,61.48
2023-01-23T05:39:35.566Z,61.84
2023-01-23T05:42:03.907Z,65.00
2023-01-23T05:44:31.836Z,63.84
2023-01-23T05:47:00.230Z,61.92
2023-01-23T05:49:27.937Z,62.84
2023-01-23T05:51:56.396Z,61.81
2023-01-23T05:54:24.405Z,63.22
2023-01-23T05:56:52.205Z,66.06
2023-01-23T05:59:34.960Z,64.04
2023-01-23T06:02:02.857Z,66.73
2023-01-23T06:04:34.764Z,68.91
2023-01-23T06:07:02.850Z,71.86
2023-01-23T06:09:30.523Z,71.62
2023-01-23T06:11:59.166Z,67.24
2023-01-23T06:14:26.735Z,64.51
2023-01-23T06:16:54.267Z,67.72
2023-01-23T06:19:22.264Z,68.90
2023-01-23T06:21:50.020Z,65.52
2023-01-23T06:24:18.687Z,60.23
2023-01-23T06:26:46.882Z,64.69
2023-01-23T06:29:14.375Z,63.27
2023-01-23T06:31:41.969Z,65.54
2023-01-23T06:34:09.881Z,65.13
2023-01-23T06:36:37.821Z,65.21
2023-01-23T06:39:05.298Z,61.01
2023-01-23T06:41:33.443Z,62.89
2023-01-23T06:44:01.638Z,60.96
2023-01-23T06:46:29.244Z,64.83
2023-01-23T06:48:57.175Z,65.87
2023-01-23T06:51:24.715Z,62.18
2023-01-23T06:53:52.294Z,64.77
2023-01-23T06:56:19.993Z,62.96
2023-01-23T06:58:48.761Z,66.91
2023-01-23T07:01:19.400Z,70.34
2023-01-23T07:03:50.258Z,70.43
2023-01-23T07:06:18.970Z,68.48
2023-01-23T07:08:46.900Z,67.88
2023-01-23T07:11:14.708Z,65.36
2023-01-23T07:13:42.177Z,64.70
2023-01-23T07:16:09.688Z,63.18
2023-01-23T07:18:38.321Z,65.41
2023-01-23T07:21:07.757Z,64.86
2023-01-23T07:23:35.336Z,63.34
2023-01-23T07:26:09.403Z,61.89
2023-01-23T07:28:37.559Z,63.37
2023-01-23T07:31:05.818Z,63.81
2023-01-23T07:33:33.800Z,63.48
2023-01-23T07:36:01.253Z,62.69
2023-01-23T07:38:29.031Z,64.41
2023-01-23T07:40:58.788Z,65.08
2023-01-23T07:43:27.089Z,65.55
2023-01-23T07:45:55.057Z,65.43
2023-01-23T07:48:22.484Z,64.48
2023-01-23T07:50:49.932Z,65.08
2023-01-23T07:53:17.796Z,64.64
2023-01-23T07:55:45.431Z,65.21
2023-01-23T07:58:12.861Z,64.20
2023-01-23T08:00:41.910Z,63.46
2023-01-23T08:03:09.688Z,65.41
2023-01-23T08:05:37.388Z,63.66
2023-01-23T08:08:13.168Z,64.75
2023-01-23T08:10:41.837Z,64.48
2023-01-23T08:13:09.527Z,64.44
2023-01-23T08:15:38.889Z,65.46
2023-01-23T08:18:06.937Z,64.55
2023-01-23T08:20:34.735Z,64.16
2023-01-23T08:23:02.467Z,65.34
2023-01-23T08:25:30.505Z,64.96
2023-01-23T08:27:58.297Z,64.19
2023-01-23T08:30:25.923Z,66.88
2023-01-23T08:32:54.155Z,65.28
2023-01-23T08:35:21.546Z,64.99
2023-01-23T08:37:49.030Z,65.05
2023-01-23T08:40:17.102Z,64.08
2023-01-23T08:42:44.530Z,61.84
2023-01-23T08:45:11.975Z,63.67
2023-01-23T08:47:39.742Z,63.79
2023-01-23T08:50:07.995Z,63.25
2023-01-23T08:52:35.790Z,64.32
2023-01-23T08:55:03.704Z,63.74
2023-01-23T08:57:31.445Z,64.32
2023-01-23T09:00:01.361Z,64.43
2023-01-23T09:02:35.692Z,62.84
2023-01-23T09:05:03.532Z,61.60
2023-01-23T09:07:31.436Z,60.64
2023-01-23T09:09:59.738Z,60.71
2023-01-23T09:12:27.251Z,59.51
2023-01-23T09:14:55.141Z,60.36
2023-01-23T09:17:22.602Z,60.94
2023-01-23T09:19:50.205Z,58.40
2023-01-23T09:22:18.199Z,61.22
2023-01-23T09:24:45.690Z,60.99
2023-01-23T09:27:13.575Z,60.81
2023-01-23T09:29:41.310Z,57.91
2023-01-23T09:32:09.307Z,59.26
2023-01-23T09:34:36.722Z,58.04
2023-01-23T09:37:04.592Z,58.54
2023-01-23T09:39:32.015Z,59.15
2023-01-23T09:42:08.447Z,59.44
2023-01-23T09:44:41.709Z,58.15
2023-01-23T09:47:16.437Z,58.01
2023-01-23T09:49:45.484Z,58.19
2023-01-23T09:52:23.449Z,58.44
2023-01-23T09:54:59.555Z,55.42
2023-01-23T09:57:45.774Z,57.12
2023-01-23T10:00:40.459Z,58.81
2023-01-23T10:03:14.315Z,58.44
2023-01-23T10:05:56.399Z,59.18
2023-01-23T10:08:34.205Z,60.21
2023-01-23T10:11:07.637Z,60.12
2023-01-23T10:13:59.736Z,59.21
2023-01-23T10:16:50.590Z,57.13
2023-01-23T10:19:42.997Z,57.71
2023-01-23T10:22:28.922Z,57.81
2023-01-23T10:24:57.718Z,55.85
2023-01-23T10:27:34.865Z,57.43
2023-01-23T10:30:21.388Z,55.55
2023-01-23T10:32:57.999Z,58.09
2023-01-23T10:35:37.010Z,55.54
2023-01-23T10:38:12.467Z,54.98
2023-01-23T10:40:58.915Z,56.61
2023-01-23T10:43:26.690Z,56.02
2023-01-23T10:45:54.596Z,56.84
2023-01-23T10:48:33.916Z,56.48
2023-01-23T10:51:01.643Z,54.69
2023-01-23T10:53:29.445Z,56.09
2023-01-23T10:55:59.671Z,55.13
2023-01-23T10:58:37.625Z,55.58
2023-01-23T11:01:06.609Z,55.89
2023-01-23T11:03:38.802Z,55.70
2023-01-23T11:06:07.157Z,54.68
2023-01-23T11:08:36.476Z,55.45
2023-01-23T11:11:17.568Z,56.72
2023-01-23T11:13:48.020Z,54.92
2023-01-23T11:16:18.818Z,52.96
2023-01-23T11:19:11.597Z,52.19
2023-01-23T11:22:00.368Z,52.68
2023-01-23T11:24:46.972Z,53.49
2023-01-23T11:27:14.651Z,51.99
2023-01-23T11:30:08.690Z,53.14
2023-01-23T11:32:43.430Z,54.94
2023-01-23T11:35:15.289Z,54.12
2023-01-23T11:37:42.830Z,53.85
2023-01-23T11:40:17.394Z,56.11
2023-01-23T11:42:45.688Z,52.51
2023-01-23T11:45:43.765Z,51.56
2023-01-23T11:48:29.941Z,54.51
2023-01-23T11:51:16.621Z,54.13
2023-01-23T11:54:07.998Z,54.83
2023-01-23T11:57:03.132Z,54.47
2023-01-23T11:59:45.221Z,54.24
2023-01-23T12:02:12.610Z,56.27
2023-01-23T12:04:58.827Z,52.93
2023-01-23T12:07:26.743Z,53.23
2023-01-23T12:10:03.653Z,52.20
2023-01-23T12:12:46.369Z,52.69
2023-01-23T12:15:20.762Z,53.67
2023-01-23T12:17:58.155Z,55.05
2023-01-23T12:20:39.474Z,55.62
2023-01-23T12:23:26.895Z,55.42
2023-01-23T12:26:12.820Z,54.20
2023-01-23T12:28:58.967Z,53.18
2023-01-23T12:31:53.377Z,52.54
2023-01-23T12:34:32.978Z,53.41
2023-01-23T12:37:30.426Z,53.74
2023-01-23T12:40:03.728Z,54.09
2023-01-23T12:42:38.715Z,53.97
2023-01-23T12:45:15.512Z,52.04
2023-01-23T12:48:00.179Z,53.73
2023-01-23T12:50:34.320Z,53.63
2023-01-23T12:53:25.980Z,51.77
2023-01-23T12:56:04.471Z,51.51
2023-01-23T12:58:36.360Z,51.76
2023-01-23T13:01:22.697Z,50.69
2023-01-23T13:03:58.406Z,51.03
2023-01-23T13:06:31.977Z,49.63
2023-01-23T13:09:24.632Z,49.87
2023-01-23T13:12:11.615Z,50.67
2023-01-23T13:15:06.772Z,50.59
2023-01-23T13:17:47.360Z,49.21
2023-01-23T13:20:40.355Z,50.57
2023-01-23T13:23:29.045Z,50.79
2023-01-23T13:26:15.276Z,51.04
2023-01-23T13:28:53.907Z,49.34
2023-01-23T13:31:34.359Z,50.33
2023-01-23T13:34:17.355Z,51.62
2023-01-23T13:36:53.145Z,48.84
2023-01-23T13:39:31.418Z,49.42
2023-01-23T13:42:14.622Z,51.11
2023-01-23T13:45:16.235Z,54.59
2023-01-23T14:22:35.522Z,51.18
2023-01-23T14:25:03.577Z,50.89
2023-01-23T14:27:53.230Z,52.88
2023-01-23T14:30:27.442Z,52.11
2023-01-23T14:32:55.307Z,49.54
2023-01-23T14:35:30.937Z,49.58
2023-01-23T14:38:01.528Z,49.46
2023-01-23T14:40:37.313Z,48.75
2023-01-23T14:43:23.193Z,49.56
2023-01-23T14:45:59.312Z,49.24
2023-01-23T14:48:27.258Z,49.78
2023-01-23T14:51:03.649Z,53.22
2023-01-23T14:53:31.381Z,50.61
2023-01-23T14:56:00.819Z,50.84
2023-01-23T14:58:29.042Z,53.08
2023-01-23T15:01:00.916Z,52.92
2023-01-23T15:03:43.909Z,54.09
2023-01-23T15:06:21.097Z,52.34
2023-01-23T15:08:49.839Z,50.95
2023-01-23T15:11:25.075Z,51.05
2023-01-23T15:14:01.414Z,53.33
2023-01-23T15:16:33.988Z,51.38
2023-01-23T15:19:22.100Z,51.84
2023-01-23T15:21:49.609Z,51.75
2023-01-23T15:24:29.588Z,52.07
2023-01-23T15:27:03.826Z,54.74
2023-01-23T15:29:32.477Z,53.23
2023-01-23T15:32:00.351Z,51.10
2023-01-23T15:34:31.060Z,53.51
2023-01-23T15:37:00.879Z,55.06
2023-01-23T15:39:31.525Z,55.93
2023-01-23T15:42:26.197Z,53.53
2023-01-23T15:44:53.982Z,53.32
2023-01-23T15:47:21.773Z,50.96
2023-01-23T15:49:49.408Z,53.35
2023-01-23T15:52:25.464Z,51.26
2023-01-23T15:55:04.719Z,54.55
2023-01-23T15:57:32.557Z,52.43
2023-01-23T16:00:01.302Z,50.46
2023-01-23T16:02:31.607Z,49.81
2023-01-23T16:05:01.864Z,50.68
2023-01-23T16:07:34.919Z,50.17
2023-01-23T16:10:04.714Z,47.51
2023-01-23T16:12:35.568Z,47.39
2023-01-23T16:15:06.372Z,47.13
2023-01-23T16:17:34.060Z,49.07
2023-01-23T16:20:01.600Z,48.28
2023-01-23T16:22:29.589Z,48.88
2023-01-23T16:24:57.881Z,47.01
2023-01-23T16:27:27.727Z,48.44
2023-01-23T16:29:56.267Z,48.25
2023-01-23T16:32:25.293Z,48.48
2023-01-23T16:34:52.912Z,47.40
2023-01-23T16:37:20.943Z,46.20
2023-01-23T16:39:48.504Z,46.46
2023-01-23T16:42:19.939Z,48.23
2023-01-23T16:44:47.864Z,46.17
2023-01-23T16:47:15.459Z,48.75
2023-01-23T16:49:51.964Z,47.26
2023-01-23T16:52:24.636Z,47.60
2023-01-23T16:54:53.453Z,48.01
2023-01-23T16:57:22.321Z,50.31
2023-01-23T16:59:51.019Z,50.95
2023-01-23T17:02:29.602Z,49.61
2023-01-23T17:04:57.655Z,49.36
2023-01-23T17:07:25.595Z,50.73
2023-01-23T17:09:54.224Z,46.91
2023-01-23T17:12:28.037Z,48.16
2023-01-23T17:14:56.777Z,46.34
2023-01-23T17:17:32.343Z,47.48
2023-01-23T17:20:02.094Z,47.83
2023-01-23T17:22:35.403Z,48.22
2023-01-23T17:25:03.827Z,48.22
2023-01-23T17:27:41.730Z,46.74
2023-01-23T17:30:24.190Z,46.78
2023-01-23T17:32:55.976Z,45.94
2023-01-23T17:35:27.972Z,45.68
2023-01-23T17:37:58.196Z,45.39
2023-01-23T17:40:26.960Z,48.00
2023-01-23T17:42:56.323Z,47.19
2023-01-23T17:45:27.495Z,46.06
2023-01-23T17:47:56.922Z,45.89
2023-01-23T17:50:28.965Z,46.36
2023-01-23T17:52:58.529Z,45.78
2023-01-23T17:55:33.874Z,45.94
2023-01-23T17:58:02.240Z,45.19
2023-01-23T18:00:32.124Z,45.10
2023-01-23T18:03:03.703Z,45.19
2023-01-23T18:05:32.531Z,43.73
2023-01-23T18:08:01.934Z,44.77
2023-01-23T18:10:30.372Z,45.97
2023-01-23T18:13:11.184Z,47.44
2023-01-23T18:15:56.974Z,52.31
2023-01-23T18:18:34.165Z,54.30
2023-01-23T18:21:05.321Z,52.86
2023-01-23T18:23:37.877Z,55.14
2023-01-23T18:26:30.966Z,53.45
2023-01-23T18:29:24.190Z,52.62
2023-01-23T18:32:25.320Z,55.86
2023-01-23T18:35:01.835Z,58.96
2023-01-23T18:37:52.968Z,58.07
2023-01-23T18:40:42.280Z,56.83
2023-01-23T18:43:44.298Z,63.37
2023-01-23T18:46:15.991Z,61.76
2023-01-23T18:48:47.506Z,60.33
2023-01-23T18:51:54.744Z,57.85
2023-01-23T18:54:32.826Z,62.66
2023-01-23T18:57:26.531Z,63.97
2023-01-23T19:00:24.892Z,61.49
2023-01-23T19:03:01.067Z,64.88
2023-01-23T19:05:32.898Z,65.74
2023-01-23T19:08:02.600Z,66.17
2023-01-23T19:10:47.603Z,65.68
2023-01-23T19:13:48.494Z,60.71
2023-01-23T19:16:30.992Z,60.23
2023-01-23T19:19:15.874Z,58.04
2023-01-23T19:21:46.457Z,59.59
2023-01-23T19:24:19.082Z,55.17
2023-01-23T19:26:48.260Z,56.11
2023-01-23T19:29:22.660Z,55.88
2023-01-23T19:32:09.201Z,57.60
2023-01-23T19:34:36.918Z,59.34
2023-01-23T19:37:08.121Z,61.29
2023-01-23T19:39:37.504Z,65.31
2023-01-23T19:42:12.310Z,62.86
2023-01-23T19:44:41.613Z,61.29
2023-01-23T19:47:11.169Z,63.17
2023-01-23T19:49:41.458Z,64.94
2023-01-23T19:52:14.851Z,65.54
2023-01-23T19:54:43.924Z,58.43
2023-01-23T19:57:14.854Z,65.34
2023-01-23T19:59:44.128Z,63.01
2023-01-23T20:02:25.194Z,65.65
2023-01-23T20:04:58.227Z,59.93
2023-01-23T20:07:27.374Z,61.46
2023-01-23T20:09:57.808Z,58.12
2023-01-23T20:12:27.501Z,58.81
2023-01-23T20:14:57.656Z,64.10
2023-01-23T20:17:31.289Z,67.61
2023-01-23T20:20:02.239Z,70.19
2023-01-23T20:22:31.015Z,66.44
2023-01-23T20:25:00.395Z,62.99
2023-01-23T20:27:29.436Z,60.05
2023-01-23T20:30:00.254Z,62.09
2023-01-23T20:32:32.758Z,63.28
2023-01-23T20:35:01.321Z,69.73
2023-01-23T20:37:30.809Z,71.48
2023-01-23T20:39:59.685Z,69.87
2023-01-23T20:42:28.350Z,71.02
2023-01-23T20:44:56.803Z,68.85
2023-01-23T20:47:27.452Z,64.19
2023-01-23T20:49:55.924Z,67.56
2023-01-23T20:52:44.385Z,68.17
2023-01-23T20:55:12.803Z,66.22
2023-01-23T20:57:59.834Z,63.12
2023-01-23T21:00:28.655Z,63.45
2023-01-23T21:02:57.350Z,62.65
2023-01-23T21:05:26.098Z,59.92
2023-01-23T21:07:55.479Z,59.83
2023-01-23T21:10:25.558Z,59.25
2023-01-23T21:12:56.450Z,59.32
2023-01-23T21:15:25.396Z,59.42
2023-01-23T21:17:53.329Z,60.03
2023-01-23T21:20:23.688Z,59.87
2023-01-23T21:22:54.657Z,57.84
2023-01-23T21:25:23.426Z,55.77
2023-01-23T21:27:51.604Z,57.00
2023-01-23T21:30:19.528Z,57.09
2023-01-23T21:32:49.221Z,57.75
2023-01-23T21:35:19.224Z,58.10
2023-01-23T21:37:46.821Z,57.71
2023-01-23T21:40:14.423Z,56.88
2023-01-23T21:42:42.699Z,53.88
2023-01-23T21:45:10.567Z,53.24
2023-01-23T21:47:37.981Z,50.78
2023-01-23T21:50:06.432Z,47.81
2023-01-23T21:52:33.839Z,49.25
2023-01-23T21:55:01.231Z,52.28
2023-01-23T21:57:28.976Z,51.70
2023-01-23T22:00:15.229Z,58.36
2023-01-23T22:02:42.981Z,59.58
2023-01-23T22:05:10.527Z,58.75
2023-01-23T22:07:37.968Z,63.02
2023-01-23T22:10:07.362Z,61.38
2023-01-23T22:12:34.815Z,61.58
2023-01-23T22:15:02.253Z,61.04
2023-01-23T22:17:30.404Z,57.18
2023-01-23T22:19:57.821Z,57.46
2023-01-23T22:22:26.296Z,54.21
2023-01-23T22:24:53.946Z,52.05
2023-01-23T22:27:23.264Z,52.04
2023-01-23T22:29:50.702Z,55.06
2023-01-23T22:32:18.578Z,61.06
2023-01-23T22:34:47.471Z,66.57
2023-01-23T22:37:15.236Z,71.23
2023-01-23T22:39:44.009Z,61.47
2023-01-23T22:42:11.405Z,59.53
2023-01-23T22:44:39.945Z,58.77
2023-01-23T22:47:08.796Z,59.56
2023-01-23T22:49:36.286Z,57.67
2023-01-23T22:52:03.834Z,55.77
2023-01-23T22:54:31.507Z,57.16
2023-01-23T22:56:58.926Z,56.43
2023-01-23T22:59:26.304Z,55.36
2023-01-23T23:01:54.018Z,59.13
2023-01-23T23:04:22.345Z,56.11
2023-01-23T23:06:49.737Z,54.76
2023-01-23T23:09:17.531Z,53.35
2023-01-23T23:11:47.450Z,50.74
2023-01-23T23:14:14.840Z,52.20
2023-01-23T23:16:42.603Z,51.39
2023-01-23T23:19:10.430Z,50.87
2023-01-23T23:21:38.266Z,50.71
2023-01-23T23:24:07.686Z,50.81
2023-01-23T23:26:35.169Z,51.03
2023-01-23T23:29:03.411Z,51.08
2023-01-23T23:31:31.417Z,50.47
2023-01-23T23:33:59.031Z,50.51
2023-01-23T23:36:26.819Z,49.84
2023-01-23T23:38:54.608Z,49.13
2023-01-23T23:41:22.310Z,50.54
2023-01-23T23:43:49.782Z,51.05
2023-01-23T23:46:18.041Z,50.59
2023-01-23T23:48:47.851Z,49.98
2023-01-23T23:51:17.279Z,50.80
2023-01-23T23:53:45.987Z,50.32
2023-01-23T23:56:28.013Z,49.83
2023-01-23T23:58:56.309Z,49.61
